Minerva Concert — SVWC — position and weather

sailwx.info

Track history (hours):
 
Tides and Currents Weather Stations Pressure Air Temp Water Temp Dewpoint Dewpoint Depression Visibility Wind Speed Wind Dir Waves Ship Positions

Minerva Concert

Last reported at 2018-Jul-25 03:56 UTC. Time now 2018-Aug-18 00:45 UTC.
Position N 37°41' E 006°47'.
Warning: this ship's position is 23 days out of date.

Length 241 m; draft 14.7 m.

Type: Ship. MMSI: 240110000.

Date/timePositionNaut miles runAvg speedWind from/ knotsBaromVisibWave heightAir tempDewpointWater temp
2018-Jul-25 03:56N 37°41' E 006°47'6911.0
2018-Jul-24 21:40N 37°39' E 005°20'210.9
2018-Jul-24 21:30N 37°39' E 005°18'711.2
2018-Jul-24 20:51N 37°38' E 005°09'411.3
2018-Jul-24 20:29N 37°37' E 005°04'1911.6
2018-Jul-24 18:49N 37°35' E 004°40'411.9
2018-Jul-24 18:30N 37°34' E 004°35'711.9
2018-Jul-24 17:53N 37°33' E 004°26'411.7
2018-Jul-24 17:30N 37°32' E 004°20'611.5
2018-Jul-24 17:00N 37°32' E 004°13'611.5
2018-Jul-24 16:30N 37°31' E 004°06'611.5
2018-Jul-24 16:00N 37°30' E 003°59'611.5
2018-Jul-24 15:30N 37°30' E 003°51'1511.3
2018-Jul-24 14:09N 37°29' E 003°32'211.3
2018-Jul-24 14:00N 37°29' E 003°30'1011.5
2018-Jul-24 13:08N 37°28' E 003°17'211.3
2018-Jul-24 13:00N 37°28' E 003°16'4 8.3
2018-Jul-24 12:29N 37°28' E 003°10'1 1.5
2018-Jul-24 12:00N 37°27' E 003°10'1 1.6
2018-Jul-24 11:30N 37°26' E 003°11'1 2.6
2018-Jul-24 10:57N 37°25' E 003°10'711.7
2018-Jul-24 10:21N 37°24' E 003°01'2512.5
2018-Jul-24 08:21N 37°21' E 002°30'412.6
2018-Jul-24 08:00N 37°20' E 002°25'612.3
2018-Jul-24 07:30N 37°19' E 002°17'612.4
2018-Jul-24 07:00N 37°18' E 002°10'612.4
2018-Jul-24 06:30N 37°18' E 002°02'612.4
2018-Jul-24 06:00N 37°17' E 001°54'612.4
2018-Jul-24 05:30N 37°15' E 001°47'612.2
2018-Jul-24 05:00N 37°13' E 001°39'612.2
2018-Jul-24 04:30N 37°12' E 001°32'612.3
2018-Jul-24 04:00N 37°10' E 001°24'612.1
2018-Jul-24 03:30N 37°08' E 001°17'612.2
2018-Jul-24 03:00N 37°07' E 001°10'612.3
2018-Jul-24 02:30N 37°05' E 001°02'612.3
2018-Jul-24 01:59N 37°03' E 000°55'612.6
2018-Jul-24 01:30N 37°01' E 000°48'612.7
2018-Jul-24 01:00N 36°60' E 000°40'612.7
2018-Jul-24 00:31N 36°58' E 000°32'612.6
2018-Jul-24 00:00N 36°57' E 000°24'612.3
2018-Jul-23 23:31N 36°55' E 000°17'612.2
2018-Jul-23 23:00N 36°53' E 000°10'612.1
2018-Jul-23 22:30N 36°52' E 000°02'612.1
2018-Jul-23 21:59N 36°50' W 000°05'611.8
2018-Jul-23 21:30N 36°48' W 000°12'611.5
2018-Jul-23 21:00N 36°47' W 000°19'911.3
2018-Jul-23 20:11N 36°44' W 000°30'710.5
2018-Jul-23 19:30N 36°43' W 000°39'510.4
2018-Jul-23 19:00N 36°41' W 000°45'611.7
2018-Jul-23 18:31N 36°39' W 000°52'612.0
2018-Jul-23 18:00N 36°38' W 000°59'19213.0
2018-Jul-23 03:10N 36°02' W 004°54'613.9
2018-Jul-23 02:44N 36°01' W 005°01'313.8
2018-Jul-23 02:30N 36°01' W 005°05'713.9
2018-Jul-23 02:00N 35°60' W 005°13'713.8
2018-Jul-23 01:30N 35°59' W 005°22'713.2
2018-Jul-23 01:00N 35°56' W 005°29'1113.3
2018-Jul-23 00:10N 35°54' W 005°43'313.3
2018-Jul-22 23:56N 35°54' W 005°46'2212.5
2018-Jul-22 22:09N 35°54' W 006°14'212.3
2018-Jul-22 21:59N 35°54' W 006°17'612.4
2018-Jul-22 21:28N 35°54' W 006°24'2212.5
2018-Jul-22 19:44N 35°60' W 006°51'312.6
2018-Jul-22 19:28N 36°00' W 006°55'712.5
2018-Jul-22 18:55N 36°02' W 007°03'1912.4
2018-Jul-22 17:25N 36°06' W 007°25'1912.5
2018-Jul-22 15:54N 36°11' W 007°48'1112.5
2018-Jul-22 15:04N 36°14' W 008°01'5012.0
2018-Jul-22 10:55N 36°26' W 009°01'512.0
2018-Jul-22 10:30N 36°27' W 009°07'611.9
2018-Jul-22 09:58N 36°28' W 009°14'711.3
2018-Jul-22 09:23N 36°31' W 009°22'411.8
2018-Jul-22 09:00N 36°34' W 009°26'611.7
2018-Jul-22 08:28N 36°39' W 009°31'1611.2
2018-Jul-22 07:02N 36°53' W 009°40'011.9
2018-Jul-22 07:00N 36°53' W 009°40'1111.8
2018-Jul-22 06:06N 37°04' W 009°43'512.3
2018-Jul-22 05:40N 37°09' W 009°45'312.4
2018-Jul-22 05:26N 37°12' W 009°46'1412.2
2018-Jul-22 04:15N 37°26' W 009°49'412.1
2018-Jul-22 03:55N 37°30' W 009°51'1412.1
2018-Jul-22 02:44N 37°44' W 009°55'411.9
2018-Jul-22 02:25N 37°47' W 009°56'511.7
2018-Jul-22 01:59N 37°52' W 009°57'612.1
2018-Jul-22 01:28N 37°58' W 009°59'612.1
2018-Jul-22 01:00N 38°04' W 010°01'612.1
2018-Jul-22 00:30N 38°10' W 010°03'812.3
2018-Jul-21 23:52N 38°17' W 010°05'612.0
2018-Jul-21 23:22N 38°23' W 010°07'511.9
2018-Jul-21 22:58N 38°28' W 010°08'1412.1
2018-Jul-21 21:48N 38°42' W 010°12'511.9
2018-Jul-21 21:24N 38°47' W 010°12'511.8
2018-Jul-21 21:00N 38°51' W 010°12'612.0
2018-Jul-21 20:30N 38°57' W 010°12'712.2
2018-Jul-21 19:57N 39°04' W 010°12'1112.1
2018-Jul-21 19:03N 39°15' W 010°12'412.6
2018-Jul-21 18:46N 39°18' W 010°12'412.8
2018-Jul-21 18:28N 39°22' W 010°12'612.3
2018-Jul-21 18:00N 39°28' W 010°12'612.4
2018-Jul-21 17:29N 39°34' W 010°12'612.2
2018-Jul-21 17:00N 39°40' W 010°12'  
2018-Jul-19 10:30N 49°25' W 004°28'3711.2
2018-Jul-19 07:13N 49°44' W 003°39'312.6
2018-Jul-19 07:01N 49°45' W 003°35'713.0
2018-Jul-19 06:30N 49°48' W 003°27'713.3
2018-Jul-19 06:00N 49°52' W 003°18'713.4
2018-Jul-19 05:30N 49°55' W 003°09'713.5
2018-Jul-19 05:01N 49°58' W 002°59'713.0
2018-Jul-19 04:31N 50°00' W 002°50'612.8
2018-Jul-19 04:00N 50°02' W 002°40'612.3
2018-Jul-19 03:30N 50°04' W 002°31'611.5
2018-Jul-19 03:00N 50°05' W 002°22'510.8
2018-Jul-19 02:30N 50°07' W 002°14'510.1
2018-Jul-19 02:00N 50°08' W 002°07'5 9.4
2018-Jul-19 01:30N 50°09' W 001°60'4 8.8
2018-Jul-19 01:00N 50°10' W 001°53'5 8.3
2018-Jul-19 00:23N 50°11' W 001°45'3 7.2
2018-Jul-19 00:01N 50°12' W 001°41'4 8.2
2018-Jul-18 23:30N 50°13' W 001°35'4 8.7
2018-Jul-18 23:00N 50°15' W 001°29'5 9.4
2018-Jul-18 22:30N 50°16' W 001°21'510.4
2018-Jul-18 22:00N 50°17' W 001°14'611.5
2018-Jul-18 21:30N 50°19' W 001°05'612.7
2018-Jul-18 21:00N 50°21' W 000°55'713.3
2018-Jul-18 20:30N 50°22' W 000°45'713.3
2018-Jul-18 20:00N 50°24' W 000°35'713.6
2018-Jul-18 19:30N 50°26' W 000°25'713.5
2018-Jul-18 19:00N 50°28' W 000°15'713.3
2018-Jul-18 18:30N 50°30' W 000°05'713.1
2018-Jul-18 18:00N 50°31' E 000°05'612.8
2018-Jul-18 17:30N 50°33' E 000°15'612.5
2018-Jul-18 17:00N 50°35' E 000°24'612.2
2018-Jul-18 16:31N 50°37' E 000°33'611.6
2018-Jul-18 16:00N 50°40' E 000°41'611.2
2018-Jul-18 15:30N 50°43' E 000°48'510.9
2018-Jul-18 15:00N 50°46' E 000°55'510.8
2018-Jul-18 14:30N 50°49' E 001°02'1111.0
2018-Jul-18 13:30N 50°57' E 001°15'612.1
2018-Jul-18 13:00N 51°01' E 001°22'714.0
2018-Jul-18 12:30N 51°05' E 001°31'715.0
2018-Jul-18 12:00N 51°10' E 001°40'714.5
2018-Jul-18 11:30N 51°16' E 001°47'1413.8
2018-Jul-18 10:30N 51°27' E 001°59'612.7
2018-Jul-18 10:00N 51°32' E 002°06'612.1
2018-Jul-18 09:30N 51°36' E 002°12'611.7
2018-Jul-18 09:00N 51°41' E 002°19'611.2
2018-Jul-18 08:30N 51°45' E 002°25'510.7
2018-Jul-18 08:00N 51°49' E 002°31'510.5
2018-Jul-18 07:30N 51°53' E 002°37'1010.1
2018-Jul-18 06:28N 52°00' E 002°48'8 9.7
2018-Jul-18 05:38N 52°03' E 003°01'110.4
2018-Jul-18 05:29N 52°03' E 003°03'510.2
2018-Jul-18 05:00N 52°03' E 003°11'510.2
2018-Jul-18 04:30N 52°03' E 003°20'510.3
2018-Jul-18 04:00N 52°03' E 003°28'510.7
2018-Jul-18 03:30N 52°04' E 003°37'511.0
2018-Jul-18 03:00N 52°03' E 003°46'5 9.9
2018-Jul-18 02:30N 52°02' E 003°54'4 7.7
2018-Jul-18 02:00N 52°00' E 003°59'4 8.5
2018-Jul-18 01:30N 51°59' E 004°05'3 6.8
2018-Jul-18 01:00N 51°57' E 004°10'2 4.0
2018-Jul-18 00:30N 51°55' E 004°12'0 0.3
2018-Jul-17 23:45N 51°55' E 004°12'0 0.0
2018-Jul-17 23:30N 51°55' E 004°12'0 0.0
2018-Jul-17 22:57N 51°55' E 004°12'0 0.0
2018-Jul-17 22:30N 51°55' E 004°12'0 0.0
2018-Jul-17 21:57N 51°55' E 004°12'0 0.0
2018-Jul-17 21:30N 51°55' E 004°12'0 0.0
2018-Jul-17 20:57N 51°55' E 004°12'0 0.0
2018-Jul-17 20:30N 51°55' E 004°12'0 0.0
2018-Jul-17 20:00N 51°55' E 004°12'0 0.0
2018-Jul-17 19:30N 51°55' E 004°12'0 0.0
2018-Jul-17 19:00N 51°55' E 004°12'0 0.0
2018-Jul-17 18:21N 51°55' E 004°12'0 0.0
2018-Jul-17 18:00N 51°55' E 004°12'0 0.0
2018-Jul-17 17:30N 51°55' E 004°12'0 0.0
2018-Jul-17 17:00N 51°55' E 004°12'0 0.0
2018-Jul-17 16:30N 51°55' E 004°12'0 0.0
2018-Jul-17 16:00N 51°55' E 004°12'0 0.0
2018-Jul-17 15:30N 51°55' E 004°12'0 0.0
2018-Jul-17 15:00N 51°55' E 004°12'0 0.0
2018-Jul-17 14:15N 51°55' E 004°12'0 0.0
2018-Jul-17 14:00N 51°55' E 004°12'0 0.0
2018-Jul-17 13:30N 51°55' E 004°12'0 0.0
2018-Jul-17 12:51N 51°55' E 004°12'0 0.0
2018-Jul-17 12:30N 51°55' E 004°12'0 0.0
2018-Jul-17 12:00N 51°55' E 004°12'0 0.0
2018-Jul-17 11:24N 51°55' E 004°12'0 0.0
2018-Jul-17 11:00N 51°55' E 004°12'0 0.0
2018-Jul-17 10:27N 51°55' E 004°12'0 0.0
2018-Jul-17 10:00N 51°55' E 004°12'0 0.0
2018-Jul-17 09:27N 51°55' E 004°12'0 0.0
2018-Jul-17 08:57N 51°55' E 004°12'0 0.0
2018-Jul-17 08:27N 51°55' E 004°12'0 0.0
2018-Jul-17 08:00N 51°55' E 004°12'0 0.0
2018-Jul-17 07:30N 51°55' E 004°12'0 0.0
2018-Jul-17 07:00N 51°55' E 004°12'0 0.0
2018-Jul-17 06:30N 51°55' E 004°12'0 0.0
2018-Jul-17 06:00N 51°55' E 004°12'0 0.0
2018-Jul-17 05:30N 51°55' E 004°12'0 0.0
2018-Jul-17 05:00N 51°55' E 004°12'0 0.0
2018-Jul-17 04:27N 51°55' E 004°12'0 0.0
2018-Jul-17 04:00N 51°55' E 004°12'0 0.0
2018-Jul-17 03:30N 51°55' E 004°12'0 0.0
2018-Jul-17 03:00N 51°55' E 004°12'0 0.0
2018-Jul-17 02:30N 51°55' E 004°12'0 0.0
2018-Jul-17 02:00N 51°55' E 004°12'0 0.0
2018-Jul-17 01:30N 51°55' E 004°12'0 0.0
2018-Jul-17 01:00N 51°55' E 004°12'0 0.0
2018-Jul-17 00:27N 51°55' E 004°12'0 0.0
2018-Jul-16 23:30N 51°55' E 004°12'0 0.0
2018-Jul-16 23:00N 51°55' E 004°12'0 0.0
2018-Jul-16 22:30N 51°55' E 004°12'0 0.0
2018-Jul-16 21:57N 51°55' E 004°12'0 0.0
2018-Jul-16 21:30N 51°55' E 004°12'0 0.0
2018-Jul-16 21:00N 51°55' E 004°12'0 0.0
2018-Jul-16 20:30N 51°55' E 004°12'0 0.0
2018-Jul-16 19:57N 51°55' E 004°12'0 0.0
2018-Jul-16 19:30N 51°55' E 004°12'0 0.0
2018-Jul-16 19:00N 51°55' E 004°12'0 0.0
2018-Jul-16 18:27N 51°55' E 004°12'0 0.0
2018-Jul-16 17:57N 51°55' E 004°12'0 0.0
2018-Jul-16 17:30N 51°55' E 004°12'0 0.0
2018-Jul-16 17:00N 51°55' E 004°12'0 0.0
2018-Jul-16 16:27N 51°55' E 004°12'0 0.0
2018-Jul-16 16:00N 51°55' E 004°12'0 0.0
2018-Jul-16 15:30N 51°55' E 004°12'0 0.0
2018-Jul-16 15:00N 51°55' E 004°12'0 0.0
2018-Jul-16 14:30N 51°55' E 004°12'0 0.0
2018-Jul-16 14:00N 51°55' E 004°12'0 0.0
2018-Jul-16 13:30N 51°55' E 004°12'0 0.0
2018-Jul-16 13:00N 51°55' E 004°12'0 0.0
2018-Jul-16 12:30N 51°55' E 004°12'0 0.0
2018-Jul-16 12:00N 51°55' E 004°12'0 0.0
2018-Jul-16 11:27N 51°55' E 004°12'0 0.0
2018-Jul-16 10:54N 51°55' E 004°12'0 0.0
2018-Jul-16 10:30N 51°55' E 004°12'0 0.0
2018-Jul-16 09:57N 51°55' E 004°12'0 0.0
2018-Jul-16 09:30N 51°55' E 004°12'0 0.0
2018-Jul-16 09:00N 51°55' E 004°12'0 0.0
2018-Jul-16 08:06N 51°55' E 004°12'0 0.0
2018-Jul-16 08:00N 51°55' E 004°12'0 0.0
2018-Jul-16 07:30N 51°55' E 004°12'0 0.0
2018-Jul-16 07:00N 51°55' E 004°12'0 0.0
2018-Jul-16 06:18N 51°55' E 004°12'0 0.0
2018-Jul-16 05:51N 51°55' E 004°12'0 0.0
2018-Jul-16 05:30N 51°55' E 004°12'0 0.0
2018-Jul-16 05:00N 51°55' E 004°12'0 0.0
2018-Jul-16 04:30N 51°55' E 004°12'0 0.0
2018-Jul-16 04:00N 51°55' E 004°12'0 0.0
2018-Jul-16 03:30N 51°55' E 004°12'0 0.0
2018-Jul-16 03:00N 51°55' E 004°12'0 0.0
2018-Jul-16 02:30N 51°55' E 004°12'0 0.0
2018-Jul-16 02:00N 51°55' E 004°12'0 0.0
2018-Jul-16 01:30N 51°55' E 004°12'0 0.0
2018-Jul-16 01:00N 51°55' E 004°12'0 0.0
2018-Jul-16 00:30N 51°55' E 004°12'0 0.0
2018-Jul-15 23:48N 51°55' E 004°12'0 0.0
2018-Jul-15 23:30N 51°55' E 004°12'0 0.0
2018-Jul-15 22:57N 51°55' E 004°12'0 0.0
2018-Jul-15 22:30N 51°55' E 004°12'0 0.0
2018-Jul-15 22:00N 51°55' E 004°12'0 0.0
2018-Jul-15 21:30N 51°55' E 004°12'0 0.0
2018-Jul-15 21:00N 51°55' E 004°12'0 0.0
2018-Jul-15 20:30N 51°55' E 004°12'0 0.0
2018-Jul-15 20:00N 51°55' E 004°12'0 0.0
2018-Jul-15 19:30N 51°55' E 004°12'0 0.0
2018-Jul-15 19:00N 51°55' E 004°12'0 0.0
2018-Jul-15 18:30N 51°55' E 004°12'0 0.0
2018-Jul-15 18:00N 51°55' E 004°12'0 0.0
2018-Jul-15 17:30N 51°55' E 004°12'0 0.0
2018-Jul-15 17:00N 51°55' E 004°12'0 0.0
2018-Jul-15 16:30N 51°55' E 004°12'0 0.0
2018-Jul-15 16:00N 51°55' E 004°12'0 0.0
2018-Jul-15 15:30N 51°55' E 004°12'0 0.0
2018-Jul-15 15:00N 51°55' E 004°12'0 0.0
2018-Jul-15 14:30N 51°55' E 004°12'0 0.0
2018-Jul-15 14:00N 51°55' E 004°12'0 0.0
2018-Jul-15 13:30N 51°55' E 004°12'0 0.0
2018-Jul-15 13:00N 51°55' E 004°12'0 0.0
2018-Jul-15 12:30N 51°55' E 004°12'0 0.0
2018-Jul-15 12:00N 51°55' E 004°12'0 0.0
2018-Jul-15 11:30N 51°55' E 004°12'0 0.0
2018-Jul-15 10:57N 51°55' E 004°12'0 0.0
2018-Jul-15 10:30N 51°55' E 004°12'0 0.0
2018-Jul-15 09:51N 51°55' E 004°12'0 0.0
2018-Jul-15 09:30N 51°55' E 004°12'0 0.0
2018-Jul-15 08:54N 51°55' E 004°12'0 0.0
2018-Jul-15 08:30N 51°55' E 004°12'0 0.0
2018-Jul-15 08:00N 51°55' E 004°12'0 0.0
2018-Jul-15 07:30N 51°55' E 004°12'0 0.0
2018-Jul-15 07:00N 51°55' E 004°12'0 0.0
2018-Jul-15 06:30N 51°55' E 004°12'0 0.0
2018-Jul-15 06:00N 51°55' E 004°12'0 0.0
2018-Jul-15 05:30N 51°55' E 004°12'0 0.0
2018-Jul-15 04:51N 51°55' E 004°12'0 0.0
2018-Jul-15 04:30N 51°55' E 004°12'0 0.0
2018-Jul-15 04:00N 51°55' E 004°12'  
Track history (hours):
 
Tides and Currents Weather Stations Pressure Air Temp Water Temp Dewpoint Dewpoint Depression Visibility Wind Speed Wind Dir Waves Ship Positions

Minerva Concert

Last reported at 2018-Jul-25 03:56 UTC. Time now 2018-Aug-18 00:45 UTC.
Position N 37°41' E 006°47'.
Warning: this ship's position is 23 days out of date.

Length 241 m; draft 14.7 m.

Type: Ship. MMSI: 240110000.

Date/timePositionNaut miles runAvg speedWind from/ knotsBaromVisibWave heightAir tempDewpointWater temp
2018-Jul-25 03:56N 37°41' E 006°47'6911.0
2018-Jul-24 21:40N 37°39' E 005°20'210.9
2018-Jul-24 21:30N 37°39' E 005°18'711.2
2018-Jul-24 20:51N 37°38' E 005°09'411.3
2018-Jul-24 20:29N 37°37' E 005°04'1911.6
2018-Jul-24 18:49N 37°35' E 004°40'411.9
2018-Jul-24 18:30N 37°34' E 004°35'711.9
2018-Jul-24 17:53N 37°33' E 004°26'411.7
2018-Jul-24 17:30N 37°32' E 004°20'611.5
2018-Jul-24 17:00N 37°32' E 004°13'611.5
2018-Jul-24 16:30N 37°31' E 004°06'611.5
2018-Jul-24 16:00N 37°30' E 003°59'611.5
2018-Jul-24 15:30N 37°30' E 003°51'1511.3
2018-Jul-24 14:09N 37°29' E 003°32'211.3
2018-Jul-24 14:00N 37°29' E 003°30'1011.5
2018-Jul-24 13:08N 37°28' E 003°17'211.3
2018-Jul-24 13:00N 37°28' E 003°16'4 8.3
2018-Jul-24 12:29N 37°28' E 003°10'1 1.5
2018-Jul-24 12:00N 37°27' E 003°10'1 1.6
2018-Jul-24 11:30N 37°26' E 003°11'1 2.6
2018-Jul-24 10:57N 37°25' E 003°10'711.7
2018-Jul-24 10:21N 37°24' E 003°01'2512.5
2018-Jul-24 08:21N 37°21' E 002°30'412.6
2018-Jul-24 08:00N 37°20' E 002°25'612.3
2018-Jul-24 07:30N 37°19' E 002°17'612.4
2018-Jul-24 07:00N 37°18' E 002°10'612.4
2018-Jul-24 06:30N 37°18' E 002°02'612.4
2018-Jul-24 06:00N 37°17' E 001°54'612.4
2018-Jul-24 05:30N 37°15' E 001°47'612.2
2018-Jul-24 05:00N 37°13' E 001°39'612.2
2018-Jul-24 04:30N 37°12' E 001°32'612.3
2018-Jul-24 04:00N 37°10' E 001°24'612.1
2018-Jul-24 03:30N 37°08' E 001°17'612.2
2018-Jul-24 03:00N 37°07' E 001°10'612.3
2018-Jul-24 02:30N 37°05' E 001°02'612.3
2018-Jul-24 01:59N 37°03' E 000°55'612.6
2018-Jul-24 01:30N 37°01' E 000°48'612.7
2018-Jul-24 01:00N 36°60' E 000°40'612.7
2018-Jul-24 00:31N 36°58' E 000°32'612.6
2018-Jul-24 00:00N 36°57' E 000°24'612.3
2018-Jul-23 23:31N 36°55' E 000°17'612.2
2018-Jul-23 23:00N 36°53' E 000°10'612.1
2018-Jul-23 22:30N 36°52' E 000°02'612.1
2018-Jul-23 21:59N 36°50' W 000°05'611.8
2018-Jul-23 21:30N 36°48' W 000°12'611.5
2018-Jul-23 21:00N 36°47' W 000°19'911.3
2018-Jul-23 20:11N 36°44' W 000°30'710.5
2018-Jul-23 19:30N 36°43' W 000°39'510.4
2018-Jul-23 19:00N 36°41' W 000°45'611.7
2018-Jul-23 18:31N 36°39' W 000°52'612.0
2018-Jul-23 18:00N 36°38' W 000°59'19213.0
2018-Jul-23 03:10N 36°02' W 004°54'613.9
2018-Jul-23 02:44N 36°01' W 005°01'313.8
2018-Jul-23 02:30N 36°01' W 005°05'713.9
2018-Jul-23 02:00N 35°60' W 005°13'713.8
2018-Jul-23 01:30N 35°59' W 005°22'713.2
2018-Jul-23 01:00N 35°56' W 005°29'1113.3
2018-Jul-23 00:10N 35°54' W 005°43'313.3
2018-Jul-22 23:56N 35°54' W 005°46'2212.5
2018-Jul-22 22:09N 35°54' W 006°14'212.3
2018-Jul-22 21:59N 35°54' W 006°17'612.4
2018-Jul-22 21:28N 35°54' W 006°24'2212.5
2018-Jul-22 19:44N 35°60' W 006°51'312.6
2018-Jul-22 19:28N 36°00' W 006°55'712.5
2018-Jul-22 18:55N 36°02' W 007°03'1912.4
2018-Jul-22 17:25N 36°06' W 007°25'1912.5
2018-Jul-22 15:54N 36°11' W 007°48'1112.5
2018-Jul-22 15:04N 36°14' W 008°01'5012.0
2018-Jul-22 10:55N 36°26' W 009°01'512.0
2018-Jul-22 10:30N 36°27' W 009°07'611.9
2018-Jul-22 09:58N 36°28' W 009°14'711.3
2018-Jul-22 09:23N 36°31' W 009°22'411.8
2018-Jul-22 09:00N 36°34' W 009°26'611.7
2018-Jul-22 08:28N 36°39' W 009°31'1611.2
2018-Jul-22 07:02N 36°53' W 009°40'011.9
2018-Jul-22 07:00N 36°53' W 009°40'1111.8
2018-Jul-22 06:06N 37°04' W 009°43'512.3
2018-Jul-22 05:40N 37°09' W 009°45'312.4
2018-Jul-22 05:26N 37°12' W 009°46'1412.2
2018-Jul-22 04:15N 37°26' W 009°49'412.1
2018-Jul-22 03:55N 37°30' W 009°51'1412.1
2018-Jul-22 02:44N 37°44' W 009°55'411.9
2018-Jul-22 02:25N 37°47' W 009°56'511.7
2018-Jul-22 01:59N 37°52' W 009°57'612.1
2018-Jul-22 01:28N 37°58' W 009°59'612.1
2018-Jul-22 01:00N 38°04' W 010°01'612.1
2018-Jul-22 00:30N 38°10' W 010°03'812.3
2018-Jul-21 23:52N 38°17' W 010°05'612.0
2018-Jul-21 23:22N 38°23' W 010°07'511.9
2018-Jul-21 22:58N 38°28' W 010°08'1412.1
2018-Jul-21 21:48N 38°42' W 010°12'511.9
2018-Jul-21 21:24N 38°47' W 010°12'511.8
2018-Jul-21 21:00N 38°51' W 010°12'612.0
2018-Jul-21 20:30N 38°57' W 010°12'712.2
2018-Jul-21 19:57N 39°04' W 010°12'1112.1
2018-Jul-21 19:03N 39°15' W 010°12'412.6
2018-Jul-21 18:46N 39°18' W 010°12'412.8
2018-Jul-21 18:28N 39°22' W 010°12'612.3
2018-Jul-21 18:00N 39°28' W 010°12'612.4
2018-Jul-21 17:29N 39°34' W 010°12'612.2
2018-Jul-21 17:00N 39°40' W 010°12'  
2018-Jul-19 10:30N 49°25' W 004°28'3711.2
2018-Jul-19 07:13N 49°44' W 003°39'312.6
2018-Jul-19 07:01N 49°45' W 003°35'713.0
2018-Jul-19 06:30N 49°48' W 003°27'713.3
2018-Jul-19 06:00N 49°52' W 003°18'713.4
2018-Jul-19 05:30N 49°55' W 003°09'713.5
2018-Jul-19 05:01N 49°58' W 002°59'713.0
2018-Jul-19 04:31N 50°00' W 002°50'612.8
2018-Jul-19 04:00N 50°02' W 002°40'612.3
2018-Jul-19 03:30N 50°04' W 002°31'611.5
2018-Jul-19 03:00N 50°05' W 002°22'510.8
2018-Jul-19 02:30N 50°07' W 002°14'510.1
2018-Jul-19 02:00N 50°08' W 002°07'5 9.4
2018-Jul-19 01:30N 50°09' W 001°60'4 8.8
2018-Jul-19 01:00N 50°10' W 001°53'5 8.3
2018-Jul-19 00:23N 50°11' W 001°45'3 7.2
2018-Jul-19 00:01N 50°12' W 001°41'4 8.2
2018-Jul-18 23:30N 50°13' W 001°35'4 8.7
2018-Jul-18 23:00N 50°15' W 001°29'5 9.4
2018-Jul-18 22:30N 50°16' W 001°21'510.4
2018-Jul-18 22:00N 50°17' W 001°14'611.5
2018-Jul-18 21:30N 50°19' W 001°05'612.7
2018-Jul-18 21:00N 50°21' W 000°55'713.3
2018-Jul-18 20:30N 50°22' W 000°45'713.3
2018-Jul-18 20:00N 50°24' W 000°35'713.6
2018-Jul-18 19:30N 50°26' W 000°25'713.5
2018-Jul-18 19:00N 50°28' W 000°15'713.3
2018-Jul-18 18:30N 50°30' W 000°05'713.1
2018-Jul-18 18:00N 50°31' E 000°05'612.8
2018-Jul-18 17:30N 50°33' E 000°15'612.5
2018-Jul-18 17:00N 50°35' E 000°24'612.2
2018-Jul-18 16:31N 50°37' E 000°33'611.6
2018-Jul-18 16:00N 50°40' E 000°41'611.2
2018-Jul-18 15:30N 50°43' E 000°48'510.9
2018-Jul-18 15:00N 50°46' E 000°55'510.8
2018-Jul-18 14:30N 50°49' E 001°02'1111.0
2018-Jul-18 13:30N 50°57' E 001°15'612.1
2018-Jul-18 13:00N 51°01' E 001°22'714.0
2018-Jul-18 12:30N 51°05' E 001°31'715.0
2018-Jul-18 12:00N 51°10' E 001°40'714.5
2018-Jul-18 11:30N 51°16' E 001°47'1413.8
2018-Jul-18 10:30N 51°27' E 001°59'612.7
2018-Jul-18 10:00N 51°32' E 002°06'612.1
2018-Jul-18 09:30N 51°36' E 002°12'611.7
2018-Jul-18 09:00N 51°41' E 002°19'611.2
2018-Jul-18 08:30N 51°45' E 002°25'510.7
2018-Jul-18 08:00N 51°49' E 002°31'510.5
2018-Jul-18 07:30N 51°53' E 002°37'1010.1
2018-Jul-18 06:28N 52°00' E 002°48'8 9.7
2018-Jul-18 05:38N 52°03' E 003°01'110.4
2018-Jul-18 05:29N 52°03' E 003°03'510.2
2018-Jul-18 05:00N 52°03' E 003°11'510.2
2018-Jul-18 04:30N 52°03' E 003°20'510.3
2018-Jul-18 04:00N 52°03' E 003°28'510.7
2018-Jul-18 03:30N 52°04' E 003°37'511.0
2018-Jul-18 03:00N 52°03' E 003°46'5 9.9
2018-Jul-18 02:30N 52°02' E 003°54'4 7.7
2018-Jul-18 02:00N 52°00' E 003°59'4 8.5
2018-Jul-18 01:30N 51°59' E 004°05'3 6.8
2018-Jul-18 01:00N 51°57' E 004°10'2 4.0
2018-Jul-18 00:30N 51°55' E 004°12'0 0.3
2018-Jul-17 23:45N 51°55' E 004°12'0 0.0
2018-Jul-17 23:30N 51°55' E 004°12'0 0.0
2018-Jul-17 22:57N 51°55' E 004°12'0 0.0
2018-Jul-17 22:30N 51°55' E 004°12'0 0.0
2018-Jul-17 21:57N 51°55' E 004°12'0 0.0
2018-Jul-17 21:30N 51°55' E 004°12'0 0.0
2018-Jul-17 20:57N 51°55' E 004°12'0 0.0
2018-Jul-17 20:30N 51°55' E 004°12'0 0.0
2018-Jul-17 20:00N 51°55' E 004°12'0 0.0
2018-Jul-17 19:30N 51°55' E 004°12'0 0.0
2018-Jul-17 19:00N 51°55' E 004°12'0 0.0
2018-Jul-17 18:21N 51°55' E 004°12'0 0.0
2018-Jul-17 18:00N 51°55' E 004°12'0 0.0
2018-Jul-17 17:30N 51°55' E 004°12'0 0.0
2018-Jul-17 17:00N 51°55' E 004°12'0 0.0
2018-Jul-17 16:30N 51°55' E 004°12'0 0.0
2018-Jul-17 16:00N 51°55' E 004°12'0 0.0
2018-Jul-17 15:30N 51°55' E 004°12'0 0.0
2018-Jul-17 15:00N 51°55' E 004°12'0 0.0
2018-Jul-17 14:15N 51°55' E 004°12'0 0.0
2018-Jul-17 14:00N 51°55' E 004°12'0 0.0
2018-Jul-17 13:30N 51°55' E 004°12'0 0.0
2018-Jul-17 12:51N 51°55' E 004°12'0 0.0
2018-Jul-17 12:30N 51°55' E 004°12'0 0.0
2018-Jul-17 12:00N 51°55' E 004°12'0 0.0
2018-Jul-17 11:24N 51°55' E 004°12'0 0.0
2018-Jul-17 11:00N 51°55' E 004°12'0 0.0
2018-Jul-17 10:27N 51°55' E 004°12'0 0.0
2018-Jul-17 10:00N 51°55' E 004°12'0 0.0
2018-Jul-17 09:27N 51°55' E 004°12'0 0.0
2018-Jul-17 08:57N 51°55' E 004°12'0 0.0
2018-Jul-17 08:27N 51°55' E 004°12'0 0.0
2018-Jul-17 08:00N 51°55' E 004°12'0 0.0
2018-Jul-17 07:30N 51°55' E 004°12'0 0.0
2018-Jul-17 07:00N 51°55' E 004°12'0 0.0
2018-Jul-17 06:30N 51°55' E 004°12'0 0.0
2018-Jul-17 06:00N 51°55' E 004°12'0 0.0
2018-Jul-17 05:30N 51°55' E 004°12'0 0.0
2018-Jul-17 05:00N 51°55' E 004°12'0 0.0
2018-Jul-17 04:27N 51°55' E 004°12'0 0.0
2018-Jul-17 04:00N 51°55' E 004°12'0 0.0
2018-Jul-17 03:30N 51°55' E 004°12'0 0.0
2018-Jul-17 03:00N 51°55' E 004°12'0 0.0
2018-Jul-17 02:30N 51°55' E 004°12'0 0.0
2018-Jul-17 02:00N 51°55' E 004°12'0 0.0
2018-Jul-17 01:30N 51°55' E 004°12'0 0.0
2018-Jul-17 01:00N 51°55' E 004°12'0 0.0
2018-Jul-17 00:27N 51°55' E 004°12'0 0.0
2018-Jul-16 23:30N 51°55' E 004°12'0 0.0
2018-Jul-16 23:00N 51°55' E 004°12'0 0.0
2018-Jul-16 22:30N 51°55' E 004°12'0 0.0
2018-Jul-16 21:57N 51°55' E 004°12'0 0.0
2018-Jul-16 21:30N 51°55' E 004°12'0 0.0
2018-Jul-16 21:00N 51°55' E 004°12'0 0.0
2018-Jul-16 20:30N 51°55' E 004°12'0 0.0
2018-Jul-16 19:57N 51°55' E 004°12'0 0.0
2018-Jul-16 19:30N 51°55' E 004°12'0 0.0
2018-Jul-16 19:00N 51°55' E 004°12'0 0.0
2018-Jul-16 18:27N 51°55' E 004°12'0 0.0
2018-Jul-16 17:57N 51°55' E 004°12'0 0.0
2018-Jul-16 17:30N 51°55' E 004°12'0 0.0
2018-Jul-16 17:00N 51°55' E 004°12'0 0.0
2018-Jul-16 16:27N 51°55' E 004°12'0 0.0
2018-Jul-16 16:00N 51°55' E 004°12'0 0.0
2018-Jul-16 15:30N 51°55' E 004°12'0 0.0
2018-Jul-16 15:00N 51°55' E 004°12'0 0.0
2018-Jul-16 14:30N 51°55' E 004°12'0 0.0
2018-Jul-16 14:00N 51°55' E 004°12'0 0.0
2018-Jul-16 13:30N 51°55' E 004°12'0 0.0
2018-Jul-16 13:00N 51°55' E 004°12'0 0.0
2018-Jul-16 12:30N 51°55' E 004°12'0 0.0
2018-Jul-16 12:00N 51°55' E 004°12'0 0.0
2018-Jul-16 11:27N 51°55' E 004°12'0 0.0
2018-Jul-16 10:54N 51°55' E 004°12'0 0.0
2018-Jul-16 10:30N 51°55' E 004°12'0 0.0
2018-Jul-16 09:57N 51°55' E 004°12'0 0.0
2018-Jul-16 09:30N 51°55' E 004°12'0 0.0
2018-Jul-16 09:00N 51°55' E 004°12'0 0.0
2018-Jul-16 08:06N 51°55' E 004°12'0 0.0
2018-Jul-16 08:00N 51°55' E 004°12'0 0.0
2018-Jul-16 07:30N 51°55' E 004°12'0 0.0
2018-Jul-16 07:00N 51°55' E 004°12'0 0.0
2018-Jul-16 06:18N 51°55' E 004°12'0 0.0
2018-Jul-16 05:51N 51°55' E 004°12'0 0.0
2018-Jul-16 05:30N 51°55' E 004°12'0 0.0
2018-Jul-16 05:00N 51°55' E 004°12'0 0.0
2018-Jul-16 04:30N 51°55' E 004°12'0 0.0
2018-Jul-16 04:00N 51°55' E 004°12'0 0.0
2018-Jul-16 03:30N 51°55' E 004°12'0 0.0
2018-Jul-16 03:00N 51°55' E 004°12'0 0.0
2018-Jul-16 02:30N 51°55' E 004°12'0 0.0
2018-Jul-16 02:00N 51°55' E 004°12'0 0.0
2018-Jul-16 01:30N 51°55' E 004°12'0 0.0
2018-Jul-16 01:00N 51°55' E 004°12'0 0.0
2018-Jul-16 00:30N 51°55' E 004°12'0 0.0
2018-Jul-15 23:48N 51°55' E 004°12'0 0.0
2018-Jul-15 23:30N 51°55' E 004°12'0 0.0
2018-Jul-15 22:57N 51°55' E 004°12'0 0.0
2018-Jul-15 22:30N 51°55' E 004°12'0 0.0
2018-Jul-15 22:00N 51°55' E 004°12'0 0.0
2018-Jul-15 21:30N 51°55' E 004°12'0 0.0
2018-Jul-15 21:00N 51°55' E 004°12'0 0.0
2018-Jul-15 20:30N 51°55' E 004°12'0 0.0
2018-Jul-15 20:00N 51°55' E 004°12'0 0.0
2018-Jul-15 19:30N 51°55' E 004°12'0 0.0
2018-Jul-15 19:00N 51°55' E 004°12'0 0.0
2018-Jul-15 18:30N 51°55' E 004°12'0 0.0
2018-Jul-15 18:00N 51°55' E 004°12'0 0.0
2018-Jul-15 17:30N 51°55' E 004°12'0 0.0
2018-Jul-15 17:00N 51°55' E 004°12'0 0.0
2018-Jul-15 16:30N 51°55' E 004°12'0 0.0
2018-Jul-15 16:00N 51°55' E 004°12'0 0.0
2018-Jul-15 15:30N 51°55' E 004°12'0 0.0
2018-Jul-15 15:00N 51°55' E 004°12'0 0.0
2018-Jul-15 14:30N 51°55' E 004°12'0 0.0
2018-Jul-15 14:00N 51°55' E 004°12'0 0.0
2018-Jul-15 13:30N 51°55' E 004°12'0 0.0
2018-Jul-15 13:00N 51°55' E 004°12'0 0.0
2018-Jul-15 12:30N 51°55' E 004°12'0 0.0
2018-Jul-15 12:00N 51°55' E 004°12'0 0.0
2018-Jul-15 11:30N 51°55' E 004°12'0 0.0
2018-Jul-15 10:57N 51°55' E 004°12'0 0.0
2018-Jul-15 10:30N 51°55' E 004°12'0 0.0
2018-Jul-15 09:51N 51°55' E 004°12'0 0.0
2018-Jul-15 09:30N 51°55' E 004°12'0 0.0
2018-Jul-15 08:54N 51°55' E 004°12'0 0.0
2018-Jul-15 08:30N 51°55' E 004°12'0 0.0
2018-Jul-15 08:00N 51°55' E 004°12'0 0.0
2018-Jul-15 07:30N 51°55' E 004°12'0 0.0
2018-Jul-15 07:00N 51°55' E 004°12'0 0.0
2018-Jul-15 06:30N 51°55' E 004°12'0 0.0
2018-Jul-15 06:00N 51°55' E 004°12'0 0.0
2018-Jul-15 05:30N 51°55' E 004°12'0 0.0
2018-Jul-15 04:51N 51°55' E 004°12'0 0.0
2018-Jul-15 04:30N 51°55' E 004°12'0 0.0
2018-Jul-15 04:00N 51°55' E 004°12'  

Dump ship's entire track history